Curtin Springs, Northern Territory

6:43 PM CST on August 29, 2014 (GMT +0930)
Ayers Rock (Connellan) | Change Station
CLOSE
Current Station
Airport
Location: Ayers Rock,
Elevation: 1627 ft
Nearby Weather Stations

Elev 1627 ft 25.19 °S, 130.98 °E | Updated 13 minutes ago

Clear
Clear
73 °F
Feels Like 73 °F
N
5
Wind Variable Wind from ENE

Today
High -- | Low -- °F
--% Chance of Precip.
Yesterday
High -- | Low -- °F
Precip. -- in
6:58 AM 6:29 PM
Waxing Crescent, 13% visible
Pressure 30.12 in
Visibility 6.2 miles
Clouds
Dew Point 23 °F
Humidity 15%
Rainfall 0.00 in
Snow Depth Not available.
UV Not available.
Pollen Not available.
Air Quality Not available.
Flu Activity Not available.
METAR YAYE 290900Z AUTO 07004KT 9999 // NCD 23/M05 Q1020

More Conditions Fewer Conditions

Pressure 30.12 in
Visibility 6.2 miles
Clouds
Dew Point 23 °F
Humidity 15%
Rainfall 0.00 in
Snow Depth Not available.
UV Not available.
Pollen Not available.
Air Quality Not available.
Flu Activity Not available.
METAR YAYE 290900Z AUTO 07004KT 9999 // NCD 23/M05 Q1020

More Conditions Fewer Conditions

10-Day Weather Forecast

Almanac

Astronomy

Aug. 29, 2014 Rise Set
Actual Time 6:58 AM CST 6:29 PM CST
Civil Twilight 6:35 AM CST 6:53 PM CST
Nautical Twilight 6:08 AM CST 7:19 PM CST
Astronomical Twilight 5:42 AM CST 7:46 PM CST
Moon 8:50 AM CST 9:37 PM CST
Length of Visible Light 12h 17m
Length of Day
11h 31m
Tomorrow will be 1m 22s longer.
Waxing Crescent, 13% of the Moon is Illuminated
Today
Waxing Crescent
Sep 2
First Quarter
Sep 8
Full
Sep 15
Last Quarter
Sep 24
New

Yesterday's Extremes

Country Highs Country Lows

Community

WunderPhotos

Upload Photos

1,748,203 photos uploaded!

Nearby

Snow Depth

Not available.

Earthquake Activity

City Distance Mag. Time & Date
No recent earthquake activity has been reported nearby.
Minimum magnitude displayed is 2.5.

Coastal Water Temperatures

Place Temperature
No Stations Reporting

Nearby Weather Stations